createdAt,value
2022-08-14T00:02:31.459Z,20.31
2022-08-14T00:05:00.352Z,20.24
2022-08-14T00:07:30.909Z,20.26
2022-08-14T00:10:49.378Z,20.29
2022-08-14T00:12:57.960Z,20.22
2022-08-14T00:15:37.364Z,20.26
2022-08-14T00:18:07.430Z,20.29
2022-08-14T00:20:43.370Z,20.26
2022-08-14T00:23:16.383Z,20.36
2022-08-14T00:25:53.878Z,20.42
2022-08-14T00:28:36.750Z,20.47
2022-08-14T00:31:14.514Z,20.44
2022-08-14T00:33:52.084Z,20.42
2022-08-14T00:36:35.276Z,20.43
2022-08-14T00:39:14.111Z,20.31
2022-08-14T00:41:43.525Z,20.23
2022-08-14T00:44:13.438Z,20.23
2022-08-14T00:46:45.577Z,20.20
2022-08-14T00:49:15.070Z,20.08
2022-08-14T00:51:45.765Z,20.12
2022-08-14T00:54:22.050Z,20.09
2022-08-14T00:56:55.578Z,20.09
2022-08-14T00:59:28.776Z,20.09
2022-08-14T01:02:02.896Z,19.94
2022-08-14T01:04:37.822Z,19.95
2022-08-14T01:07:22.880Z,19.85
2022-08-14T01:09:54.471Z,19.82
2022-08-14T01:12:27.320Z,19.86
2022-08-14T01:15:03.180Z,19.82
2022-08-14T01:17:52.128Z,19.79
2022-08-14T01:20:41.015Z,19.81
2022-08-14T01:23:16.408Z,19.84
2022-08-14T01:25:52.204Z,19.82
2022-08-14T01:28:34.241Z,19.74
2022-08-14T01:31:14.586Z,19.71
2022-08-14T01:35:16.054Z,19.65
2022-08-14T01:36:39.213Z,19.57
2022-08-14T01:39:15.187Z,19.55
2022-08-14T01:41:46.837Z,19.61
2022-08-14T01:44:32.881Z,19.60
2022-08-14T01:47:21.501Z,19.62
2022-08-14T01:49:59.416Z,19.60
2022-08-14T01:52:34.639Z,19.60
2022-08-14T01:55:20.126Z,19.58
2022-08-14T01:58:01.854Z,19.60
2022-08-14T02:00:39.335Z,19.64
2022-08-14T02:03:09.489Z,19.62
2022-08-14T02:05:39.036Z,19.62
2022-08-14T02:08:10.365Z,19.51
2022-08-14T02:10:46.099Z,19.54
2022-08-14T02:13:21.121Z,19.53
2022-08-14T02:15:51.629Z,19.50
2022-08-14T02:18:21.893Z,19.43
2022-08-14T02:20:53.381Z,19.45
2022-08-14T02:23:31.941Z,19.49
2022-08-14T02:26:24.063Z,19.58
2022-08-14T02:29:00.484Z,19.55
2022-08-14T02:31:42.118Z,19.49
2022-08-14T02:34:22.474Z,19.46
2022-08-14T02:37:05.227Z,19.52
2022-08-14T02:39:37.624Z,19.52
2022-08-14T02:42:13.265Z,19.48
2022-08-14T02:44:49.057Z,19.48
2022-08-14T02:47:21.350Z,19.48
2022-08-14T02:49:56.736Z,19.49
2022-08-14T02:52:56.596Z,19.52
2022-08-14T02:55:15.538Z,19.45
2022-08-14T02:57:58.185Z,19.32
2022-08-14T03:00:39.889Z,19.25
2022-08-14T03:03:10.184Z,19.21
2022-08-14T03:05:41.207Z,19.19
2022-08-14T03:08:15.949Z,19.13
2022-08-14T03:10:50.095Z,19.07
2022-08-14T03:13:22.056Z,19.05
2022-08-14T03:15:55.858Z,19.01
2022-08-14T03:18:31.545Z,18.94
2022-08-14T03:21:03.960Z,18.97
2022-08-14T03:23:36.483Z,19.07
2022-08-14T03:26:12.583Z,19.10
2022-08-14T03:28:51.371Z,19.15
2022-08-14T03:31:25.906Z,19.13
2022-08-14T03:33:56.177Z,18.96
2022-08-14T03:37:51.891Z,18.98
2022-08-14T03:39:24.231Z,18.92
2022-08-14T03:41:56.222Z,18.90
2022-08-14T03:45:30.729Z,18.91
2022-08-14T03:47:20.401Z,18.87
2022-08-14T03:49:54.837Z,18.89
2022-08-14T03:52:40.557Z,18.90
2022-08-14T03:55:16.641Z,18.90
2022-08-14T03:57:48.629Z,18.88
2022-08-14T04:00:44.450Z,18.92
2022-08-14T04:03:23.536Z,18.88
2022-08-14T04:05:55.337Z,18.90
2022-08-14T04:08:30.632Z,18.89
2022-08-14T04:11:10.351Z,18.89
2022-08-14T04:13:42.069Z,18.82
2022-08-14T04:16:15.411Z,18.77
2022-08-14T04:18:47.295Z,18.66
2022-08-14T04:21:24.792Z,18.65
2022-08-14T04:23:57.226Z,18.61
2022-08-14T04:26:42.737Z,18.60
2022-08-14T04:29:14.939Z,18.56
2022-08-14T04:33:01.834Z,18.60
2022-08-14T04:34:36.665Z,18.62
2022-08-14T04:37:26.743Z,18.64
2022-08-14T04:40:15.240Z,18.62
2022-08-14T04:43:01.794Z,18.68
2022-08-14T04:45:38.977Z,18.62
2022-08-14T04:48:38.934Z,18.61
2022-08-14T04:51:07.653Z,18.50
2022-08-14T04:53:43.114Z,18.43
2022-08-14T04:56:33.869Z,18.41
2022-08-14T04:59:10.452Z,18.32
2022-08-14T05:01:48.677Z,18.31
2022-08-14T05:04:25.736Z,18.23
2022-08-14T05:06:55.576Z,18.20
2022-08-14T05:09:28.976Z,18.23
2022-08-14T05:12:54.929Z,18.27
2022-08-14T05:14:54.672Z,18.31
2022-08-14T05:17:32.121Z,18.25
2022-08-14T05:21:54.402Z,18.23
2022-08-14T05:23:03.830Z,18.27
2022-08-14T05:25:38.293Z,18.34
2022-08-14T05:28:14.257Z,18.37
2022-08-14T05:30:48.056Z,18.43
2022-08-14T05:33:18.917Z,18.29
2022-08-14T05:35:51.332Z,18.22
2022-08-14T05:38:31.678Z,18.26
2022-08-14T05:41:02.992Z,18.24
2022-08-14T05:43:44.261Z,18.20
2022-08-14T05:46:23.167Z,18.26
2022-08-14T05:48:53.397Z,18.38
2022-08-14T05:51:25.428Z,18.45
2022-08-14T05:54:00.300Z,18.49
2022-08-14T05:56:39.903Z,18.55
2022-08-14T05:59:12.623Z,18.58
2022-08-14T06:01:48.288Z,18.68
2022-08-14T06:04:20.342Z,18.74
2022-08-14T06:06:51.701Z,18.80
2022-08-14T06:09:26.236Z,18.86
2022-08-14T06:11:56.965Z,18.93
2022-08-14T06:14:26.610Z,19.05
2022-08-14T06:16:57.114Z,19.15
2022-08-14T06:19:26.649Z,19.16
2022-08-14T06:21:58.458Z,19.15
2022-08-14T06:24:30.682Z,19.17
2022-08-14T06:27:10.115Z,19.26
2022-08-14T06:29:39.680Z,19.34
2022-08-14T06:32:36.862Z,19.42
2022-08-14T06:35:02.441Z,19.51
2022-08-14T06:37:44.328Z,19.57
2022-08-14T06:40:26.091Z,19.62
2022-08-14T06:43:00.422Z,19.66
2022-08-14T06:45:32.542Z,19.76
2022-08-14T06:48:01.737Z,19.71
2022-08-14T06:50:33.572Z,19.71
2022-08-14T06:53:03.936Z,19.79
2022-08-14T06:55:37.108Z,19.80
2022-08-14T06:58:28.664Z,19.79
2022-08-14T07:01:15.151Z,19.80
2022-08-14T07:04:01.691Z,19.95
2022-08-14T07:06:45.621Z,19.97
2022-08-14T07:09:23.149Z,20.09
2022-08-14T07:11:52.223Z,20.22
2022-08-14T07:14:21.004Z,20.16
2022-08-14T07:16:49.481Z,20.23
2022-08-14T07:19:20.965Z,20.16
2022-08-14T07:21:50.336Z,20.27
2022-08-14T07:24:21.797Z,20.22
2022-08-14T07:26:55.019Z,20.27
2022-08-14T07:29:26.257Z,20.25
2022-08-14T07:31:57.517Z,20.36
2022-08-14T07:34:40.939Z,20.48
2022-08-14T07:37:10.857Z,20.56
2022-08-14T07:39:43.953Z,20.49
2022-08-14T07:42:12.616Z,20.43
2022-08-14T07:44:45.824Z,20.29
2022-08-14T07:47:16.615Z,20.36
2022-08-14T07:49:57.262Z,20.43
2022-08-14T07:52:30.942Z,20.41
2022-08-14T07:55:03.088Z,20.44
2022-08-14T07:57:38.687Z,20.54
2022-08-14T08:00:29.962Z,20.64
2022-08-14T08:03:01.933Z,20.57
2022-08-14T08:05:35.398Z,20.66
2022-08-14T08:08:26.981Z,20.60
2022-08-14T08:11:03.609Z,20.68
2022-08-14T08:13:49.125Z,20.76
2022-08-14T08:16:25.174Z,20.91
2022-08-14T08:19:14.030Z,21.05
2022-08-14T08:21:47.582Z,21.15
2022-08-14T08:24:19.838Z,21.11
2022-08-14T08:26:51.667Z,21.25
2022-08-14T08:29:28.277Z,21.35
2022-08-14T08:32:01.741Z,21.44
2022-08-14T08:34:46.709Z,21.50
2022-08-14T08:37:16.473Z,21.68
2022-08-14T08:40:02.715Z,21.80
2022-08-14T08:42:38.843Z,21.86
2022-08-14T08:45:12.128Z,21.79
2022-08-14T08:47:41.992Z,21.88
2022-08-14T08:53:02.821Z,21.83
2022-08-14T08:55:38.603Z,22.18
2022-08-14T08:58:16.322Z,22.41
2022-08-14T09:00:54.236Z,22.61
2022-08-14T09:03:27.278Z,22.84
2022-08-14T09:05:59.048Z,22.97
2022-08-14T09:08:32.969Z,22.93
2022-08-14T09:11:19.406Z,22.84
2022-08-14T09:13:54.424Z,23.00
2022-08-14T09:16:25.560Z,22.79
2022-08-14T09:18:55.454Z,22.79
2022-08-14T09:21:31.064Z,22.88
2022-08-14T09:24:29.442Z,22.91
2022-08-14T09:26:53.296Z,22.86
2022-08-14T09:29:23.843Z,22.84
2022-08-14T09:31:58.049Z,23.03
2022-08-14T09:34:58.492Z,23.20
2022-08-14T09:37:46.917Z,23.22
2022-08-14T09:40:29.516Z,23.65
2022-08-14T09:43:10.734Z,23.51
2022-08-14T09:45:53.033Z,23.67
2022-08-14T09:48:30.009Z,23.54
2022-08-14T09:54:18.203Z,23.04
2022-08-14T09:56:57.198Z,23.20
2022-08-14T09:59:40.769Z,23.41
2022-08-14T10:02:28.488Z,23.54
2022-08-14T10:05:06.653Z,23.63
2022-08-14T10:07:41.235Z,23.88
2022-08-14T10:10:34.639Z,24.64
2022-08-14T10:13:06.829Z,25.33
2022-08-14T10:15:47.325Z,25.65
2022-08-14T10:18:21.780Z,25.16
2022-08-14T10:20:57.994Z,25.29
2022-08-14T10:23:30.063Z,25.59
2022-08-14T10:26:07.654Z,26.18
2022-08-14T10:29:14.031Z,26.45
2022-08-14T10:31:44.744Z,26.24
2022-08-14T10:34:29.189Z,26.48
2022-08-14T10:37:14.715Z,26.72
2022-08-14T10:40:02.193Z,26.78
2022-08-14T10:42:38.995Z,26.59
2022-08-14T10:45:21.621Z,26.63
2022-08-14T10:48:08.868Z,26.71
2022-08-14T10:50:51.600Z,26.94
2022-08-14T10:53:33.164Z,27.21
2022-08-14T10:56:21.550Z,27.18
2022-08-14T10:59:03.416Z,27.65
2022-08-14T11:01:41.142Z,27.67
2022-08-14T11:04:30.564Z,27.92
2022-08-14T11:07:02.651Z,28.32
2022-08-14T11:09:34.378Z,28.44
2022-08-14T11:12:34.796Z,28.49
2022-08-14T11:15:02.235Z,28.57
2022-08-14T11:17:33.093Z,28.25
2022-08-14T11:20:03.644Z,28.38
2022-08-14T11:23:03.081Z,28.84
2022-08-14T11:25:43.949Z,28.57
2022-08-14T11:28:19.005Z,28.75
2022-08-14T11:30:54.124Z,29.13
2022-08-14T11:33:43.221Z,29.54
2022-08-14T11:36:17.864Z,29.00
2022-08-14T11:38:51.536Z,29.18
2022-08-14T11:41:22.969Z,28.65
2022-08-14T11:43:56.239Z,28.96
2022-08-14T11:46:30.259Z,29.43
2022-08-14T11:49:09.555Z,29.10
2022-08-14T11:51:52.971Z,29.00
2022-08-14T11:54:34.004Z,29.49
2022-08-14T11:57:05.959Z,29.60
2022-08-14T11:59:34.835Z,28.98
2022-08-14T12:03:01.298Z,28.22
2022-08-14T12:05:13.334Z,28.11
2022-08-14T12:07:50.546Z,27.68
2022-08-14T12:10:37.138Z,27.75
2022-08-14T12:13:17.520Z,27.57
2022-08-14T12:15:52.616Z,27.70
2022-08-14T12:18:32.800Z,27.67
2022-08-14T12:21:19.003Z,27.23
2022-08-14T12:23:50.379Z,27.12
2022-08-14T12:26:39.095Z,27.05
2022-08-14T12:29:10.784Z,27.14
2022-08-14T12:32:00.413Z,27.27
2022-08-14T12:34:37.278Z,27.38
2022-08-14T12:37:10.353Z,27.47
2022-08-14T12:39:45.883Z,27.31
2022-08-14T12:42:34.147Z,27.39
2022-08-14T12:45:04.276Z,27.44
2022-08-14T12:47:33.455Z,27.59
2022-08-14T12:50:03.197Z,27.80
2022-08-14T12:52:45.369Z,28.03
2022-08-14T12:55:44.125Z,28.21
2022-08-14T12:59:12.716Z,27.87
2022-08-14T13:01:59.433Z,27.75
2022-08-14T13:04:35.420Z,27.58
2022-08-14T13:07:09.007Z,27.59
2022-08-14T13:09:38.143Z,27.96
2022-08-14T13:12:32.350Z,28.01
2022-08-14T13:15:08.949Z,28.23
2022-08-14T13:17:43.440Z,28.29
2022-08-14T13:20:24.709Z,28.32
2022-08-14T13:22:56.726Z,28.15
2022-08-14T13:25:27.495Z,27.59
2022-08-14T13:28:00.394Z,27.47
2022-08-14T13:30:30.785Z,27.87
2022-08-14T13:33:07.024Z,27.78
2022-08-14T13:35:47.805Z,28.06
2022-08-14T13:38:22.228Z,28.32
2022-08-14T13:40:56.167Z,28.79
2022-08-14T13:43:36.478Z,28.91
2022-08-14T13:46:07.628Z,28.69
2022-08-14T13:48:43.942Z,28.85
2022-08-14T13:51:18.214Z,29.53
2022-08-14T13:54:08.373Z,29.15
2022-08-14T13:56:42.359Z,29.47
2022-08-14T13:59:12.498Z,29.47
2022-08-14T14:01:52.133Z,28.83
2022-08-14T14:04:31.192Z,28.79
2022-08-14T14:07:04.410Z,28.32
2022-08-14T14:09:37.682Z,28.84
2022-08-14T14:12:37.555Z,28.75
2022-08-14T14:15:11.202Z,28.42
2022-08-14T14:17:43.900Z,29.27
2022-08-14T14:20:15.299Z,29.18
2022-08-14T14:23:09.502Z,28.62
2022-08-14T14:25:51.253Z,28.49
2022-08-14T14:28:32.266Z,28.65
2022-08-14T14:31:05.984Z,28.47
2022-08-14T14:33:47.849Z,28.64
2022-08-14T14:36:21.737Z,28.01
2022-08-14T14:38:56.465Z,27.31
2022-08-14T14:41:37.679Z,27.25
2022-08-14T14:44:09.089Z,27.17
2022-08-14T14:46:41.633Z,26.85
2022-08-14T14:49:15.075Z,26.63
2022-08-14T14:51:51.482Z,26.91
2022-08-14T14:54:31.267Z,27.54
2022-08-14T14:57:02.401Z,27.03
2022-08-14T14:59:33.263Z,26.45
2022-08-14T15:02:08.175Z,26.30
2022-08-14T15:04:43.574Z,26.31
2022-08-14T15:07:13.159Z,26.16
2022-08-14T15:09:45.255Z,26.44
2022-08-14T15:12:56.603Z,26.15
2022-08-14T15:15:08.925Z,25.81
2022-08-14T15:17:41.997Z,25.82
2022-08-14T15:20:17.542Z,25.92
2022-08-14T15:23:12.244Z,25.77
2022-08-14T15:25:42.033Z,25.84
2022-08-14T15:28:21.001Z,25.92
2022-08-14T15:30:57.994Z,25.38
2022-08-14T15:34:33.986Z,25.10
2022-08-14T15:36:36.215Z,25.00
2022-08-14T15:39:06.246Z,24.83
2022-08-14T15:41:41.839Z,24.92
2022-08-14T15:44:25.224Z,24.85
2022-08-14T15:46:55.957Z,24.49
2022-08-14T15:49:34.517Z,24.26
2022-08-14T15:52:07.833Z,24.25
2022-08-14T15:54:38.818Z,24.47
2022-08-14T15:57:10.858Z,24.53
2022-08-14T15:59:58.697Z,24.44
2022-08-14T16:02:28.727Z,24.44
2022-08-14T16:04:59.644Z,24.41
2022-08-14T16:07:31.124Z,24.31
2022-08-14T16:10:27.654Z,24.14
2022-08-14T16:12:50.671Z,24.43
2022-08-14T16:15:21.452Z,24.56
2022-08-14T16:17:56.585Z,24.58
2022-08-14T16:20:42.153Z,24.85
2022-08-14T16:23:18.404Z,24.66
2022-08-14T16:25:52.657Z,24.40
2022-08-14T16:28:27.846Z,24.45
2022-08-14T16:30:57.700Z,24.34
2022-08-14T16:33:27.983Z,23.89
2022-08-14T16:36:30.572Z,24.15
2022-08-14T16:39:04.076Z,24.25
2022-08-14T16:41:32.914Z,24.22
2022-08-14T16:44:13.585Z,24.03
2022-08-14T16:46:55.266Z,23.95
2022-08-14T16:50:03.076Z,23.87
2022-08-14T16:52:43.408Z,24.07
2022-08-14T16:55:08.875Z,24.45
2022-08-14T16:57:50.020Z,24.69
2022-08-14T17:00:32.678Z,25.13
2022-08-14T17:03:08.461Z,25.47
2022-08-14T17:05:43.308Z,26.13
2022-08-14T17:08:31.812Z,26.22
2022-08-14T17:11:11.201Z,26.92
2022-08-14T17:13:58.445Z,26.16
2022-08-14T17:16:35.936Z,25.73
2022-08-14T17:19:11.565Z,25.09
2022-08-14T17:21:51.658Z,24.90
2022-08-14T17:24:55.922Z,24.80
2022-08-14T17:27:18.139Z,24.32
2022-08-14T17:29:56.614Z,24.24
2022-08-14T17:32:55.949Z,24.29
2022-08-14T17:35:57.594Z,24.30
2022-08-14T17:38:38.703Z,24.17
2022-08-14T17:41:32.686Z,23.89
2022-08-14T17:44:34.218Z,23.76
2022-08-14T17:47:28.018Z,23.71
2022-08-14T17:50:58.878Z,23.75
2022-08-14T17:52:52.594Z,23.63
2022-08-14T17:56:01.326Z,23.80
2022-08-14T17:58:20.746Z,23.63
2022-08-14T18:00:57.871Z,23.55
2022-08-14T18:03:46.416Z,23.38
2022-08-14T18:09:25.930Z,23.27
2022-08-14T18:14:48.986Z,23.21
2022-08-14T18:17:25.371Z,22.96
2022-08-14T18:19:59.595Z,22.87
2022-08-14T18:22:39.444Z,22.82
2022-08-14T18:25:18.007Z,22.68
2022-08-14T18:27:51.504Z,22.43
2022-08-14T18:30:33.105Z,22.43
2022-08-14T18:33:20.996Z,22.58
2022-08-14T18:35:59.753Z,22.61
2022-08-14T18:38:55.131Z,22.39
2022-08-14T18:41:37.050Z,22.22
2022-08-14T18:44:10.857Z,22.23
2022-08-14T18:47:15.972Z,22.33
2022-08-14T18:50:26.134Z,22.43
2022-08-14T18:53:07.359Z,22.44
2022-08-14T18:55:54.104Z,22.37
2022-08-14T18:58:31.692Z,22.38
2022-08-14T19:01:06.484Z,22.27
2022-08-14T19:03:57.763Z,22.13
2022-08-14T19:06:56.336Z,22.15
2022-08-14T19:09:58.453Z,22.24
2022-08-14T19:13:12.003Z,22.13
2022-08-14T19:15:44.564Z,22.00
2022-08-14T19:18:26.380Z,22.01
2022-08-14T19:20:59.938Z,21.83
2022-08-14T19:23:42.413Z,21.83
2022-08-14T19:26:34.211Z,21.61
2022-08-14T19:29:25.854Z,21.61
2022-08-14T19:31:58.973Z,21.62
2022-08-14T19:34:52.535Z,21.63
2022-08-14T19:37:47.922Z,21.67
2022-08-14T19:40:38.072Z,21.63
2022-08-14T19:43:09.507Z,21.68
2022-08-14T19:45:40.699Z,21.79
2022-08-14T19:48:15.853Z,21.59
2022-08-14T19:50:47.101Z,21.62
2022-08-14T19:53:19.025Z,21.53
2022-08-14T19:56:02.609Z,21.56
2022-08-14T19:58:54.970Z,21.53
2022-08-14T20:01:38.120Z,21.34
2022-08-14T20:04:22.876Z,21.46
2022-08-14T20:07:08.942Z,21.62
2022-08-14T20:11:06.337Z,21.65
2022-08-14T20:13:07.973Z,21.72
2022-08-14T20:15:47.143Z,21.71
2022-08-14T20:18:49.126Z,21.64
2022-08-14T20:21:18.718Z,21.38
2022-08-14T20:23:49.960Z,21.38
2022-08-14T20:26:30.534Z,21.49
2022-08-14T20:29:07.121Z,21.53
2022-08-14T20:31:38.375Z,21.61
2022-08-14T20:34:24.942Z,21.65
2022-08-14T20:37:09.576Z,21.65
2022-08-14T20:39:44.987Z,21.57
2022-08-14T20:42:43.890Z,21.42
2022-08-14T20:45:24.817Z,21.46
2022-08-14T20:48:07.132Z,21.54
2022-08-14T20:50:45.167Z,21.55
2022-08-14T20:53:33.711Z,21.56
2022-08-14T20:56:28.918Z,21.53
2022-08-14T20:58:54.274Z,21.53
2022-08-14T21:01:36.003Z,21.40
2022-08-14T21:04:22.737Z,21.43
2022-08-14T21:07:25.117Z,21.49
2022-08-14T21:10:05.608Z,21.52
2022-08-14T21:12:35.908Z,21.49
2022-08-14T21:15:11.113Z,21.49
2022-08-14T21:17:46.106Z,21.55
2022-08-14T21:20:26.084Z,21.60
2022-08-14T21:23:00.552Z,21.43
2022-08-14T21:25:34.653Z,21.40
2022-08-14T21:28:07.316Z,21.43
2022-08-14T21:30:51.115Z,21.47
2022-08-14T21:33:22.811Z,21.59
2022-08-14T21:35:55.732Z,21.50
2022-08-14T21:38:34.252Z,21.28
2022-08-14T21:41:42.325Z,21.23
2022-08-14T21:44:17.098Z,21.01
2022-08-14T21:46:49.845Z,21.11
2022-08-14T21:49:24.566Z,21.19
2022-08-14T21:52:05.230Z,21.14
2022-08-14T21:54:53.474Z,21.20
2022-08-14T21:57:56.499Z,21.28
2022-08-14T22:00:35.415Z,21.29
2022-08-14T22:03:09.047Z,21.12
2022-08-14T22:05:45.178Z,21.04
2022-08-14T22:08:26.790Z,21.05
2022-08-14T22:10:59.216Z,21.03
2022-08-14T22:13:32.568Z,21.06
2022-08-14T22:16:59.969Z,21.15
2022-08-14T22:19:03.390Z,21.19
2022-08-14T22:21:34.274Z,21.21
2022-08-14T22:24:10.546Z,21.18
2022-08-14T22:26:44.889Z,21.14
2022-08-14T22:29:16.866Z,21.11
2022-08-14T22:31:48.861Z,21.13
2022-08-14T22:34:19.422Z,21.14
2022-08-14T22:36:49.699Z,21.05
2022-08-14T22:40:17.678Z,21.10
2022-08-14T22:42:24.206Z,21.08
2022-08-14T22:44:56.803Z,21.08
2022-08-14T22:47:40.483Z,20.97
2022-08-14T22:50:30.507Z,20.86
2022-08-14T22:53:05.682Z,20.75
2022-08-14T22:55:42.006Z,20.64
2022-08-14T22:58:30.370Z,20.61
2022-08-14T23:01:11.998Z,20.65
2022-08-14T23:03:49.754Z,20.61
2022-08-14T23:07:02.933Z,20.45
2022-08-14T23:09:56.989Z,20.41
2022-08-14T23:12:35.033Z,20.28
2022-08-14T23:15:07.333Z,20.22
2022-08-14T23:17:40.879Z,20.15
2022-08-14T23:20:19.054Z,20.06
2022-08-14T23:22:51.281Z,19.91
2022-08-14T23:25:58.507Z,19.97
2022-08-14T23:28:33.549Z,19.93
2022-08-14T23:31:34.715Z,19.89
2022-08-14T23:34:20.296Z,19.98
2022-08-14T23:36:59.550Z,20.04
2022-08-14T23:39:39.266Z,19.88
2022-08-14T23:42:18.046Z,19.54
2022-08-14T23:44:59.123Z,19.49
2022-08-14T23:47:30.939Z,19.58
2022-08-14T23:50:38.565Z,19.57
2022-08-14T23:53:28.577Z,19.52
2022-08-14T23:56:10.051Z,19.63
2022-08-14T23:58:49.115Z,19.45
